createdAt,value
2018-03-19T00:00:06.442Z,28.90
2018-03-19T00:02:34.044Z,28.80
2018-03-19T00:05:02.479Z,29.00
2018-03-19T00:07:30.069Z,28.90
2018-03-19T00:09:57.682Z,28.80
2018-03-19T00:12:25.544Z,29.00
2018-03-19T00:14:53.177Z,29.10
2018-03-19T00:17:21.572Z,29.10
2018-03-19T00:19:49.232Z,29.10
2018-03-19T00:22:16.847Z,29.10
2018-03-19T00:24:44.492Z,29.20
2018-03-19T00:27:12.438Z,29.20
2018-03-19T00:29:40.058Z,29.30
2018-03-19T00:32:08.458Z,29.30
2018-03-19T00:34:36.065Z,29.30
2018-03-19T00:37:03.671Z,29.50
2018-03-19T00:39:31.319Z,29.50
2018-03-19T00:41:59.696Z,29.50
2018-03-19T00:44:28.880Z,29.40
2018-03-19T00:46:56.502Z,29.40
2018-03-19T00:49:24.110Z,29.80
2018-03-19T00:51:52.519Z,29.70
2018-03-19T00:54:20.119Z,29.70
2018-03-19T00:56:47.716Z,29.80
2018-03-19T00:59:16.133Z,29.90
2018-03-19T01:01:43.732Z,29.90
2018-03-19T01:04:11.350Z,30.50
2018-03-19T01:06:38.972Z,30.40
2018-03-19T01:09:07.384Z,30.60
2018-03-19T01:11:34.989Z,30.60
2018-03-19T01:14:02.612Z,30.50
2018-03-19T01:16:30.241Z,30.70
2018-03-19T01:18:58.006Z,30.80
2018-03-19T01:21:25.593Z,30.80
2018-03-19T01:23:53.194Z,31.00
2018-03-19T01:26:20.813Z,31.20
2018-03-19T01:28:48.410Z,31.30
2018-03-19T01:31:16.038Z,31.40
2018-03-19T01:33:43.642Z,31.60
2018-03-19T01:36:12.043Z,31.50
2018-03-19T01:38:39.658Z,31.90
2018-03-19T01:41:07.301Z,31.90
2018-03-19T01:43:34.920Z,31.90
2018-03-19T01:46:03.282Z,31.90
2018-03-19T01:48:31.666Z,32.20
2018-03-19T01:51:00.042Z,32.20
2018-03-19T01:53:28.417Z,32.30
2018-03-19T01:55:56.820Z,32.60
2018-03-19T01:58:24.414Z,32.50
2018-03-19T02:00:52.047Z,32.50
2018-03-19T02:03:19.747Z,32.70
2018-03-19T02:05:47.390Z,32.80
2018-03-19T02:08:15.019Z,32.80
2018-03-19T02:10:42.630Z,33.00
2018-03-19T02:13:10.253Z,33.20
2018-03-19T02:15:37.946Z,33.10
2018-03-19T02:18:05.557Z,33.10
2018-03-19T02:20:33.178Z,33.20
2018-03-19T02:23:00.823Z,33.40
2018-03-19T02:25:28.599Z,33.50
2018-03-19T02:27:56.212Z,33.60
2018-03-19T02:30:23.975Z,33.70
2018-03-19T02:32:51.613Z,33.70
2018-03-19T02:35:19.977Z,33.90
2018-03-19T02:37:48.416Z,34.10
2018-03-19T02:40:16.088Z,34.00
2018-03-19T02:42:43.734Z,34.10
2018-03-19T02:45:11.332Z,34.20
2018-03-19T02:47:39.554Z,34.20
2018-03-19T02:50:07.204Z,34.20
2018-03-19T02:52:34.897Z,34.30
2018-03-19T02:55:03.255Z,34.40
2018-03-19T02:57:30.880Z,34.60
2018-03-19T02:59:59.291Z,34.70
2018-03-19T03:02:26.882Z,34.70
2018-03-19T03:04:54.508Z,34.70
2018-03-19T03:07:22.133Z,34.90
2018-03-19T03:09:50.498Z,35.10
2018-03-19T03:12:18.166Z,35.10
2018-03-19T03:14:45.785Z,35.10
2018-03-19T03:17:13.386Z,35.10
2018-03-19T03:19:41.026Z,35.10
2018-03-19T03:22:08.610Z,35.30
2018-03-19T03:24:36.197Z,35.30
2018-03-19T03:27:03.811Z,35.40
2018-03-19T03:29:31.450Z,35.30
2018-03-19T03:31:59.045Z,35.30
2018-03-19T03:34:26.694Z,35.40
2018-03-19T03:36:54.354Z,35.50
2018-03-19T03:39:22.710Z,35.60
2018-03-19T03:41:50.329Z,35.60
2018-03-19T03:44:17.974Z,35.70
2018-03-19T03:46:46.945Z,35.90
2018-03-19T03:49:14.583Z,35.90
2018-03-19T03:51:42.222Z,36.00
2018-03-19T03:54:09.831Z,36.00
2018-03-19T03:56:38.191Z,36.30
2018-03-19T03:59:05.814Z,36.30
2018-03-19T04:01:33.429Z,36.30
2018-03-19T04:04:01.023Z,36.30
2018-03-19T04:06:28.665Z,36.40
2018-03-19T04:08:57.081Z,36.30
2018-03-19T04:11:24.678Z,36.30
2018-03-19T04:13:52.286Z,36.50
2018-03-19T04:16:19.918Z,36.50
2018-03-19T04:18:48.877Z,36.70
2018-03-19T04:21:16.542Z,36.70
2018-03-19T04:23:44.768Z,36.80
2018-03-19T04:26:13.037Z,36.80
2018-03-19T04:28:42.042Z,37.30
2018-03-19T04:31:09.699Z,37.20
2018-03-19T04:33:37.320Z,37.30
2018-03-19T04:36:04.923Z,37.40
2018-03-19T04:38:32.567Z,37.50
2018-03-19T04:41:01.858Z,37.80
2018-03-19T04:43:29.454Z,37.80
2018-03-19T04:45:57.086Z,37.80
2018-03-19T04:48:26.079Z,38.00
2018-03-19T04:50:54.451Z,38.00
2018-03-19T04:53:22.855Z,38.20
2018-03-19T04:55:50.493Z,38.10
2018-03-19T04:58:18.879Z,38.40
2018-03-19T05:00:46.513Z,38.50
2018-03-19T05:03:14.939Z,38.80
2018-03-19T05:05:42.639Z,38.70
2018-03-19T05:08:10.251Z,38.70
2018-03-19T05:10:38.759Z,38.90
2018-03-19T05:13:06.628Z,39.00
2018-03-19T05:15:34.291Z,39.10
2018-03-19T05:18:02.150Z,39.20
2018-03-19T05:20:29.816Z,39.20
2018-03-19T05:22:57.454Z,39.40
2018-03-19T05:25:25.047Z,39.20
2018-03-19T05:27:52.670Z,39.20
2018-03-19T05:30:20.325Z,39.30
2018-03-19T05:32:47.927Z,39.40
2018-03-19T05:35:15.556Z,39.40
2018-03-19T05:37:43.144Z,39.40
2018-03-19T05:40:11.230Z,39.40
2018-03-19T05:42:38.892Z,39.40
2018-03-19T05:45:06.505Z,39.40
2018-03-19T05:47:34.095Z,39.40
2018-03-19T05:50:01.754Z,39.60
2018-03-19T05:52:29.368Z,39.50
2018-03-19T05:54:56.970Z,39.50
2018-03-19T05:57:24.595Z,39.50
2018-03-19T05:59:52.221Z,39.50
2018-03-19T06:02:19.817Z,39.50
2018-03-19T06:04:47.422Z,40.10
2018-03-19T06:07:15.807Z,39.20
2018-03-19T06:09:43.412Z,39.50
2018-03-19T06:12:11.077Z,39.40
2018-03-19T06:14:38.678Z,39.50
2018-03-19T06:17:06.290Z,39.50
2018-03-19T06:19:33.903Z,39.20
2018-03-19T06:22:01.523Z,39.30
2018-03-19T06:24:29.170Z,39.40
2018-03-19T06:26:56.766Z,39.50
2018-03-19T06:29:24.356Z,39.20
2018-03-19T06:31:53.633Z,38.90
2018-03-19T06:34:21.220Z,39.00
2018-03-19T06:36:48.840Z,38.90
2018-03-19T06:39:16.486Z,39.00
2018-03-19T06:41:44.164Z,39.00
2018-03-19T06:44:11.801Z,38.60
2018-03-19T06:46:39.401Z,38.20
2018-03-19T06:49:07.074Z,38.20
2018-03-19T06:51:34.687Z,38.00
2018-03-19T06:54:02.303Z,37.90
2018-03-19T06:56:30.722Z,37.10
2018-03-19T06:58:58.320Z,37.10
2018-03-19T07:01:25.911Z,36.90
2018-03-19T07:03:54.332Z,35.50
2018-03-19T07:06:21.988Z,35.40
2018-03-19T07:08:49.634Z,34.70
2018-03-19T07:11:17.244Z,34.80
2018-03-19T07:13:44.854Z,34.30
2018-03-19T07:16:12.497Z,34.00
2018-03-19T07:18:40.861Z,33.40
2018-03-19T07:21:09.221Z,33.00
2018-03-19T07:23:36.853Z,32.90
2018-03-19T07:26:04.483Z,32.50
2018-03-19T07:28:32.103Z,32.60
2018-03-19T07:30:59.701Z,32.80
2018-03-19T07:33:27.346Z,32.30
2018-03-19T07:35:55.714Z,32.00
2018-03-19T07:38:24.455Z,32.00
2018-03-19T07:40:52.125Z,31.40
2018-03-19T07:43:19.751Z,31.30
2018-03-19T07:45:47.394Z,31.50
2018-03-19T07:48:15.782Z,31.40
2018-03-19T07:50:43.434Z,31.40
2018-03-19T07:53:11.840Z,31.20
2018-03-19T07:55:39.466Z,31.00
2018-03-19T07:58:07.836Z,30.60
2018-03-19T08:00:37.246Z,30.00
2018-03-19T08:03:05.625Z,31.20
2018-03-19T08:05:34.007Z,29.90
2018-03-19T08:08:02.406Z,29.80
2018-03-19T08:10:30.019Z,29.80
2018-03-19T08:12:57.622Z,29.40
2018-03-19T08:15:25.267Z,29.50
2018-03-19T08:17:53.738Z,28.30
2018-03-19T08:20:22.772Z,28.20
2018-03-19T08:22:50.417Z,28.10
2018-03-19T08:25:18.036Z,27.60
2018-03-19T08:27:45.678Z,27.80
2018-03-19T08:30:13.281Z,27.90
2018-03-19T08:32:41.634Z,28.20
2018-03-19T08:35:09.854Z,28.20
2018-03-19T08:37:37.477Z,27.40
2018-03-19T08:40:05.871Z,26.70
2018-03-19T08:42:33.472Z,26.70
2018-03-19T08:45:01.083Z,26.70
2018-03-19T08:47:29.472Z,26.70
2018-03-19T08:49:57.070Z,26.70
2018-03-19T08:52:24.734Z,26.30
2018-03-19T08:54:52.388Z,26.10
2018-03-19T08:57:20.030Z,26.20
2018-03-19T08:59:47.669Z,26.50
2018-03-19T09:02:16.059Z,25.70
2018-03-19T09:04:43.670Z,25.70
2018-03-19T09:07:11.316Z,26.10
2018-03-19T09:09:38.943Z,26.40
2018-03-19T09:12:06.555Z,25.80
2018-03-19T09:14:35.730Z,25.50
2018-03-19T09:17:03.346Z,25.50
2018-03-19T09:19:31.722Z,24.90
2018-03-19T09:22:00.547Z,24.60
2018-03-19T09:24:28.166Z,24.60
2018-03-19T09:26:56.524Z,24.50
2018-03-19T09:29:24.154Z,24.40
2018-03-19T09:31:51.736Z,24.60
2018-03-19T09:34:19.352Z,25.20
2018-03-19T09:36:46.983Z,24.50
2018-03-19T09:39:15.342Z,24.70
2018-03-19T09:41:42.994Z,24.60
2018-03-19T09:44:10.598Z,24.40
2018-03-19T09:46:38.826Z,24.70
2018-03-19T09:49:07.241Z,24.30
2018-03-19T09:51:36.442Z,23.90
2018-03-19T09:54:04.366Z,23.90
2018-03-19T09:56:32.007Z,24.20
2018-03-19T09:58:59.635Z,23.90
2018-03-19T10:01:27.253Z,25.20
2018-03-19T10:03:54.960Z,24.40
2018-03-19T10:06:22.569Z,25.00
2018-03-19T10:08:50.272Z,24.10
2018-03-19T10:11:18.672Z,23.70
2018-03-19T10:13:48.068Z,23.70
2018-03-19T10:16:19.349Z,23.20
2018-03-19T10:18:47.063Z,23.20
2018-03-19T10:21:15.456Z,23.50
2018-03-19T10:23:43.094Z,23.50
2018-03-19T10:26:11.450Z,23.80
2018-03-19T10:28:39.056Z,23.70
2018-03-19T10:31:06.690Z,23.80
2018-03-19T10:33:34.886Z,22.60
2018-03-19T10:36:02.480Z,22.50
2018-03-19T10:38:30.116Z,23.30
2018-03-19T10:40:57.722Z,23.60
2018-03-19T10:43:25.363Z,22.90
2018-03-19T10:45:52.988Z,22.90
2018-03-19T10:48:20.606Z,22.90
2018-03-19T10:50:48.182Z,23.40
2018-03-19T10:53:16.542Z,22.90
2018-03-19T10:55:44.886Z,22.90
2018-03-19T10:58:12.519Z,23.20
2018-03-19T11:00:40.158Z,23.10
2018-03-19T11:03:08.528Z,23.60
2018-03-19T11:05:42.549Z,23.50
2018-03-19T11:08:10.903Z,23.00
2018-03-19T11:10:38.553Z,23.00
2018-03-19T11:13:07.006Z,24.40
2018-03-19T11:15:34.595Z,23.30
2018-03-19T11:18:02.330Z,23.60
2018-03-19T11:20:30.652Z,23.90
2018-03-19T11:22:59.019Z,23.20
2018-03-19T11:25:27.422Z,23.10
2018-03-19T11:27:55.775Z,23.00
2018-03-19T11:30:23.410Z,23.10
2018-03-19T11:32:50.999Z,23.10
2018-03-19T11:35:18.756Z,23.70
2018-03-19T11:37:46.379Z,23.40
2018-03-19T11:40:14.023Z,22.80
2018-03-19T11:42:41.730Z,22.60
2018-03-19T11:45:09.350Z,22.80
2018-03-19T11:47:36.978Z,23.00
2018-03-19T11:50:05.372Z,22.20
2018-03-19T11:52:33.367Z,22.20
2018-03-19T11:55:01.222Z,22.50
2018-03-19T11:57:29.205Z,22.80
2018-03-19T11:59:56.874Z,22.70
2018-03-19T12:02:24.479Z,22.60
2018-03-19T12:04:52.862Z,22.50
2018-03-19T12:07:20.516Z,22.50
2018-03-19T12:09:48.875Z,23.10
2018-03-19T12:12:16.485Z,23.10
2018-03-19T12:14:44.146Z,23.00
2018-03-19T12:17:11.787Z,23.50
2018-03-19T12:19:39.402Z,23.30
2018-03-19T12:22:07.046Z,22.70
2018-03-19T12:24:34.774Z,22.80
2018-03-19T12:27:02.362Z,22.60
2018-03-19T12:29:29.978Z,22.20
2018-03-19T12:31:58.406Z,23.00
2018-03-19T12:34:26.164Z,23.00
2018-03-19T12:36:53.844Z,23.40
2018-03-19T12:39:21.486Z,23.60
2018-03-19T12:41:49.083Z,23.70
2018-03-19T12:44:16.710Z,23.80
2018-03-19T12:46:44.302Z,23.20
2018-03-19T12:49:11.930Z,23.00
2018-03-19T12:51:39.572Z,23.20
2018-03-19T12:54:07.174Z,22.20
2018-03-19T12:56:34.783Z,21.40
2018-03-19T12:59:02.424Z,20.90
2018-03-19T13:01:30.845Z,21.00
2018-03-19T13:03:58.416Z,21.00
2018-03-19T13:06:26.077Z,20.20
2018-03-19T13:08:54.224Z,18.60
2018-03-19T13:11:21.822Z,18.10
2018-03-19T13:13:50.948Z,17.80
2018-03-19T13:16:19.305Z,17.70
2018-03-19T13:18:47.718Z,17.40
2018-03-19T13:21:15.307Z,17.40
2018-03-19T13:23:42.887Z,16.90
2018-03-19T13:26:10.532Z,17.10
2018-03-19T13:28:38.110Z,17.20
2018-03-19T13:31:05.723Z,16.70
2018-03-19T13:33:33.366Z,16.30
2018-03-19T13:36:01.715Z,15.60
2018-03-19T13:38:29.323Z,15.60
2018-03-19T13:40:56.937Z,16.00
2018-03-19T13:43:25.308Z,15.90
2018-03-19T13:45:54.403Z,15.80
2018-03-19T13:48:22.049Z,15.70
2018-03-19T13:50:49.646Z,15.90
2018-03-19T13:53:18.085Z,15.30
2018-03-19T13:55:45.674Z,15.30
2018-03-19T13:58:13.288Z,14.80
2018-03-19T14:00:40.901Z,15.40
2018-03-19T14:03:09.252Z,15.20
2018-03-19T14:05:36.932Z,15.30
2018-03-19T14:08:05.158Z,14.80
2018-03-19T14:10:32.777Z,15.00
2018-03-19T14:13:01.178Z,15.00
2018-03-19T14:15:28.787Z,15.00
2018-03-19T14:17:56.371Z,15.30
2018-03-19T14:20:24.782Z,15.00
2018-03-19T14:22:52.499Z,15.00
2018-03-19T14:25:20.095Z,15.00
2018-03-19T14:27:48.586Z,14.80
2018-03-19T14:30:16.982Z,14.70
2018-03-19T14:32:44.619Z,14.80
2018-03-19T14:35:12.234Z,14.40
2018-03-19T14:37:39.828Z,14.90
2018-03-19T14:40:07.490Z,14.10
2018-03-19T14:42:35.872Z,14.50
2018-03-19T14:45:03.476Z,14.30
2018-03-19T14:47:31.139Z,15.20
2018-03-19T14:49:58.746Z,15.00
2018-03-19T14:52:26.361Z,14.40
2018-03-19T14:54:53.966Z,14.10
2018-03-19T14:57:21.574Z,13.90
2018-03-19T14:59:49.382Z,14.00
2018-03-19T15:02:17.007Z,14.40
2018-03-19T15:04:44.599Z,14.40
2018-03-19T15:07:13.399Z,14.30
2018-03-19T15:09:41.121Z,14.20
2018-03-19T15:12:09.499Z,14.70
2018-03-19T15:14:37.162Z,14.20
2018-03-19T15:17:04.829Z,14.20
2018-03-19T15:19:32.471Z,13.90
2018-03-19T15:22:02.181Z,13.70
2018-03-19T15:24:35.159Z,13.50
2018-03-19T15:27:02.796Z,13.70
2018-03-19T15:29:33.076Z,13.60
2018-03-19T15:32:02.066Z,14.10
2018-03-19T15:34:31.265Z,15.30
2018-03-19T15:36:59.660Z,16.30
2018-03-19T15:39:28.046Z,17.10
2018-03-19T15:41:55.629Z,17.10
2018-03-19T15:44:23.291Z,17.80
2018-03-19T15:46:52.931Z,18.50
2018-03-19T15:49:21.511Z,18.50
2018-03-19T15:51:52.810Z,19.20
2018-03-19T15:54:21.292Z,19.60
2018-03-19T15:56:52.700Z,20.00
2018-03-19T15:59:21.054Z,20.10
2018-03-19T16:01:48.646Z,20.00
2018-03-19T16:04:17.034Z,20.90
2018-03-19T16:06:44.650Z,20.80
2018-03-19T16:09:12.294Z,20.50
2018-03-19T16:11:39.963Z,20.60
2018-03-19T16:14:08.345Z,21.10
2018-03-19T16:16:35.926Z,21.40
2018-03-19T16:19:04.434Z,22.20
2018-03-19T16:21:32.238Z,22.20
2018-03-19T16:23:59.847Z,22.20
2018-03-19T16:26:28.294Z,22.10
2018-03-19T16:28:57.774Z,22.40
2018-03-19T16:31:26.301Z,22.30
2018-03-19T16:33:54.659Z,22.10
2018-03-19T16:36:22.294Z,22.10
2018-03-19T16:38:49.887Z,22.50
2018-03-19T16:41:17.513Z,22.90
2018-03-19T16:43:45.134Z,22.80
2018-03-19T16:46:13.490Z,22.80
2018-03-19T16:48:41.124Z,22.80
2018-03-19T16:51:08.706Z,23.10
2018-03-19T16:53:36.280Z,23.70
2018-03-19T16:56:05.404Z,24.10
2018-03-19T16:58:33.030Z,23.60
2018-03-19T17:01:01.401Z,23.60
2018-03-19T17:03:29.076Z,23.60
2018-03-19T17:05:57.448Z,23.90
2018-03-19T17:08:25.653Z,23.90
2018-03-19T17:10:53.292Z,24.40
2018-03-19T17:13:21.702Z,24.80
2018-03-19T17:15:49.297Z,24.80
2018-03-19T17:18:16.903Z,24.80
2018-03-19T17:20:44.612Z,24.80
2018-03-19T17:23:12.209Z,25.20
2018-03-19T17:25:40.562Z,25.60
2018-03-19T17:28:08.184Z,25.60
2018-03-19T17:30:35.882Z,25.50
2018-03-19T17:33:03.463Z,26.10
2018-03-19T17:35:31.818Z,25.50
2018-03-19T17:37:59.479Z,25.50
2018-03-19T17:40:27.080Z,25.50
2018-03-19T17:42:54.684Z,25.60
2018-03-19T17:45:23.109Z,25.50
2018-03-19T17:47:51.538Z,26.10
2018-03-19T17:50:19.778Z,26.00
2018-03-19T17:52:47.437Z,25.90
2018-03-19T17:55:15.043Z,26.20
2018-03-19T17:57:43.244Z,26.10
2018-03-19T18:00:11.687Z,26.20
2018-03-19T18:02:39.311Z,26.20
2018-03-19T18:05:06.922Z,26.40
2018-03-19T18:07:36.063Z,26.60
2018-03-19T18:10:03.678Z,26.50
2018-03-19T18:12:31.263Z,26.60
2018-03-19T18:14:59.667Z,26.80
2018-03-19T18:17:27.577Z,26.80
2018-03-19T18:19:55.174Z,26.80
2018-03-19T18:22:23.584Z,26.80
2018-03-19T18:24:51.998Z,26.80
2018-03-19T18:27:19.608Z,26.90
2018-03-19T18:29:47.255Z,26.80
2018-03-19T18:32:15.606Z,26.80
2018-03-19T18:34:43.206Z,26.80
2018-03-19T18:37:10.979Z,27.10
2018-03-19T18:39:38.610Z,26.80
2018-03-19T18:42:06.974Z,28.40
2018-03-19T18:44:34.609Z,28.40
2018-03-19T18:47:02.212Z,27.40
2018-03-19T18:49:29.820Z,27.20
2018-03-19T18:51:57.486Z,27.10
2018-03-19T18:54:25.103Z,27.70
2018-03-19T18:56:52.691Z,27.20
2018-03-19T18:59:20.347Z,27.20
2018-03-19T19:01:47.986Z,27.40
2018-03-19T19:04:15.592Z,27.40
2018-03-19T19:06:43.253Z,27.30
2018-03-19T19:09:10.867Z,27.60
2018-03-19T19:11:39.124Z,27.80
2018-03-19T19:14:07.536Z,28.00
2018-03-19T19:16:35.120Z,28.00
2018-03-19T19:19:02.752Z,27.80
2018-03-19T19:21:30.437Z,27.80
2018-03-19T19:23:58.024Z,27.80
2018-03-19T19:26:25.622Z,27.90
2018-03-19T19:28:53.258Z,27.80
2018-03-19T19:31:21.609Z,28.00
2018-03-19T19:33:49.266Z,28.00
2018-03-19T19:36:16.906Z,28.80
2018-03-19T19:38:44.533Z,28.40
2018-03-19T19:41:12.123Z,28.50
2018-03-19T19:43:39.791Z,28.50
2018-03-19T19:46:08.483Z,28.50
2018-03-19T19:48:36.107Z,28.70
2018-03-19T19:51:03.833Z,28.90
2018-03-19T19:53:32.199Z,29.10
2018-03-19T19:55:59.811Z,29.10
2018-03-19T19:58:27.490Z,29.30
2018-03-19T20:00:55.126Z,29.30
2018-03-19T20:03:22.756Z,29.90
2018-03-19T20:05:51.202Z,29.60
2018-03-19T20:08:18.954Z,29.60
2018-03-19T20:10:46.561Z,29.60
2018-03-19T20:13:15.015Z,29.40
2018-03-19T20:15:42.739Z,29.40
2018-03-19T20:18:10.344Z,29.60
2018-03-19T20:20:38.007Z,29.60
2018-03-19T20:23:05.679Z,29.50
2018-03-19T20:25:34.070Z,29.60
2018-03-19T20:28:02.462Z,29.70
2018-03-19T20:30:30.167Z,29.70
2018-03-19T20:32:57.777Z,29.80
2018-03-19T20:35:25.377Z,30.00
2018-03-19T20:37:53.851Z,30.20
2018-03-19T20:40:21.518Z,30.40
2018-03-19T20:42:49.288Z,30.40
2018-03-19T20:45:16.862Z,30.50
2018-03-19T20:47:44.509Z,30.70
2018-03-19T20:50:12.763Z,31.10
2018-03-19T20:52:40.419Z,31.00
2018-03-19T20:55:08.070Z,31.20
2018-03-19T20:57:35.687Z,31.20
2018-03-19T21:00:04.088Z,31.60
2018-03-19T21:02:32.486Z,31.50
2018-03-19T21:05:00.088Z,31.50
2018-03-19T21:07:27.745Z,31.90
2018-03-19T21:09:55.352Z,31.80
2018-03-19T21:12:23.152Z,32.20
2018-03-19T21:14:50.782Z,32.00
2018-03-19T21:17:18.413Z,32.30
2018-03-19T21:19:47.535Z,32.60
2018-03-19T21:22:16.372Z,33.20
2018-03-19T21:24:46.181Z,33.10
2018-03-19T21:27:14.258Z,32.60
2018-03-19T21:29:42.314Z,32.90
2018-03-19T21:32:10.143Z,33.20
2018-03-19T21:34:38.060Z,32.80
2018-03-19T21:37:05.817Z,33.00
2018-03-19T21:39:34.265Z,33.30
2018-03-19T21:42:02.014Z,33.70
2018-03-19T21:44:29.734Z,32.20
2018-03-19T21:46:57.405Z,32.20
2018-03-19T21:49:25.827Z,32.50
2018-03-19T21:51:53.691Z,32.80
2018-03-19T21:54:21.686Z,33.10
2018-03-19T21:56:49.509Z,33.40
2018-03-19T21:59:18.826Z,33.70
2018-03-19T22:01:46.630Z,33.70
2018-03-19T22:04:14.245Z,33.60
2018-03-19T22:06:41.836Z,33.50
2018-03-19T22:09:09.726Z,33.80
2018-03-19T22:11:37.330Z,33.80
2018-03-19T22:14:05.395Z,33.70
2018-03-19T22:16:33.792Z,33.70
2018-03-19T22:19:01.396Z,33.70
2018-03-19T22:21:29.038Z,33.90
2018-03-19T22:23:56.746Z,34.20
2018-03-19T22:26:25.111Z,34.30
2018-03-19T22:28:53.518Z,34.20
2018-03-19T22:31:21.142Z,34.10
2018-03-19T22:33:48.742Z,33.60
2018-03-19T22:36:16.533Z,34.70
2018-03-19T22:38:44.151Z,33.60
2018-03-19T22:43:46.402Z,33.20
2018-03-19T22:46:14.071Z,33.10
2018-03-19T22:48:41.662Z,33.20
2018-03-19T22:51:09.284Z,33.30
2018-03-19T22:53:36.907Z,33.40
2018-03-19T22:56:04.533Z,33.50
2018-03-19T22:58:32.946Z,33.30
2018-03-19T23:01:00.538Z,33.30
2018-03-19T23:03:28.191Z,33.80
2018-03-19T23:05:55.785Z,33.90
2018-03-19T23:08:24.135Z,34.00
2018-03-19T23:10:51.767Z,33.90
2018-03-19T23:13:19.368Z,34.40
2018-03-19T23:15:46.980Z,34.10
2018-03-19T23:18:15.302Z,35.00
2018-03-19T23:20:42.903Z,34.30
2018-03-19T23:23:10.608Z,34.20
2018-03-19T23:25:38.247Z,34.40
2018-03-19T23:28:06.122Z,34.50
2018-03-19T23:30:33.734Z,34.60
2018-03-19T23:33:02.032Z,34.80
2018-03-19T23:35:30.025Z,34.80
2018-03-19T23:37:57.687Z,35.00
2018-03-19T23:40:25.280Z,35.00
2018-03-19T23:42:54.419Z,35.30
2018-03-19T23:45:22.025Z,35.30
2018-03-19T23:47:49.713Z,36.30
2018-03-19T23:50:18.066Z,35.30
2018-03-19T23:52:45.702Z,35.30
2018-03-19T23:55:13.354Z,35.30
2018-03-19T23:57:41.026Z,35.40
